Wednesday, February 10, 2016
11:00 UTC
  |  Log In   |  Register Free
Airport Search:

Shenandoah Valley Regional Airport
(KSHD)

Shenandoah Valley Regional Airport Diagram
No Airport Diagram Available

FAA data valid effective Dec 10 2015 - Feb 4 2016 (unless otherwise noted).

 
 
 
 
 
 
 
 
 
 
 
 
 
 
Current Aviation Weather for KSHD

Weather Summary


The most recent METAR observation for SHD was updated at: 12:55 UTC
METAR for KSHD is not available. Closest METAR is for KW13
KSHD  (most recent observation was updatred at 10:10 UTC)
101015Z AUTO 00000KT 10SM CLR M04/M09 A2975 RMK AO2 T10361095

KW13  (11.4 nm NE)   (most recent observation was updated at 10:10 UTC)
101015Z AUTO 22003KT 10SM CLR M05/M12 A2972 RMK AO1 T10551123

KCHO  (22.2 nm NW)   (most recent observation was updated at 10:09 UTC)
100953Z AUTO VRB03KT 10SM OVC095 M02/M12 A2973 RMK AO2 SLP070 T10171117

TAF for KSHD is not available.
KCHO  (22.2 nm NW)   (most recent observation was updatred at 10:05 UTC)
100520Z 1006/1106 28006KT P6SM OVC060 FM101600 26010KT P6SM SCT080


GlobalAir.com is loading additional information.
 Current Weather at SHD
27.0 F° (-2.9 C°)

Southwest winds at 3.5 mph
Pressure:
29.74 in
Humidity:
61%
Wind:
Southwest at 3.5 mph
Dew Point:
14.9 F° (-9.5 C°)
Visibility:
10.00 mi
SHD NOAA Radar




Find All Airport Services Find A Hotel Find A Rental Car Find A Golf Course Find A Restaurant $100 Hamburger



Airport Weather Forecast for KSHD

Translated METAR for KSHD (1015 UTC)
METAR:
KSHD 101015Z AUTO 00000KT 10SM CLR M04/M09 A2975 RMK AO2 T10361095
Conditions at:
KSHD (Shenandoah Valley Rgnl, VA) observed 1015 UTC 10 February 2016
Temperature:
-4°C (24.8°F)
Dewpoint:
-9°C (15.8°F) [RH = 68.2]
Pressure:
29.75 inches Hg (1007.5 mb)
Winds:
from the N (000 degrees) at 0 mph (0 knots: 0 m/s)
Visibility:
10 mile(s)
Ceiling:
at least 12,000 feet AGL
Clouds:
Clear below 12,000 feet AGL
Remarks:
site is un-manned
site is automated and HAS a precipitation sensor

Translated TAF for KCHO (Charlottesville-Albemarle, VA) (0520 UTC)
TAF text:
KCHO 100520Z 1006/1106 28006KT P6SM OVC060
Forecast period:
Wednesday Feb 10 2016 06:00 UTC - Thursday Feb 11 2016 06:00 UTC
Forecast type:
FROM: standard forecast or significant change
Winds:
from the W (280 degrees) at 6.9 mph (6 knots: 3.1 m/s)
Visibility:
6 or more mile(s) (9.7+ km)
Ceiling:
6,000 feet AGL
Clouds:
Overcast Skies at 6,000 feet AGL
Weather:
no significant weather observed at this time
TAF text:
FM101600 26010KT P6SM SCT080
Forecast period:
Wednesday Feb 10 2016 16:00 UTC - Thursday Feb 11 2016 06:00 UTC
Forecast type:
FROM: standard forecast or significant change
Winds:
from the W (260 degrees) at 11.5 mph (10 knots: 5.1 m/s)
Visibility:
6 or more mile(s) (9.7+ km)
Ceiling:
at least 12,000 feet AGL
Clouds:
Scattered Clouds at 8,000 feet AGL
Weather:
no significant weather observed at this time
FBO's on the Field
FBO Company Facility Photos Services Transportation Aviation Fuel Prices: Prices include tax
Catering Weather Repair Courtesy Rental Type 100LL JetA JetA+ MOGAS 8087
 
Avnet Shenandoah Valley

This FBO has not yet been rated
FS:Avfuel
Last Updated: Jan-26
Login to update fuel prices
SS:
Contact Avnet Shenandoah ValleyMore FBO Information
 
Add another FBO Facility Photos Catering Weather Repair Courtesy Rental Type 100LL JetA JetA+ MOGAS 8087
Services Transportation Aviation Fuel Prices: Prices include tax


model-print
model-print
model-print
model-print